createdAt,value
2022-12-25T00:16:29.180Z,28.49
2022-12-25T03:14:29.428Z,27.51
2022-12-25T03:15:29.432Z,28.37
2022-12-25T03:16:29.448Z,27.52
2022-12-25T03:17:29.426Z,27.11
2022-12-25T03:18:29.426Z,29.25
2022-12-25T03:19:29.417Z,31.40
2022-12-25T03:20:29.430Z,31.01
2022-12-25T03:21:29.413Z,28.48
2022-12-25T03:22:29.456Z,28.12
2022-12-25T03:23:29.411Z,28.89
2022-12-25T03:24:29.410Z,28.71
2022-12-25T03:25:29.405Z,26.88
2022-12-25T03:26:29.416Z,26.18
2022-12-25T03:27:29.423Z,29.08
2022-12-25T03:28:29.414Z,32.31
2022-12-25T03:29:31.887Z,29.08
2022-12-25T03:30:29.597Z,31.31
2022-12-25T03:31:29.620Z,29.58
2022-12-25T03:32:29.549Z,32.42
2022-12-25T03:33:45.837Z,31.99
2022-12-25T03:34:30.560Z,32.16
2022-12-25T03:35:29.553Z,31.72
2022-12-25T03:36:29.552Z,32.06
2022-12-25T03:37:29.557Z,32.84
2022-12-25T03:38:29.564Z,26.75
2022-12-25T03:39:29.583Z,26.92
2022-12-25T03:40:29.572Z,31.06
2022-12-25T03:41:29.586Z,27.37
2022-12-25T03:42:29.579Z,30.95
2022-12-25T03:43:29.579Z,29.93
2022-12-25T03:44:29.587Z,28.29
2022-12-25T03:45:29.584Z,28.53
2022-12-25T03:46:29.647Z,29.00
2022-12-25T03:47:29.607Z,29.05
2022-12-25T03:48:29.596Z,28.32
2022-12-25T03:49:29.591Z,29.45
2022-12-25T03:50:29.598Z,26.73
2022-12-25T03:51:29.597Z,28.20
2022-12-25T03:52:29.618Z,28.24
2022-12-25T03:53:29.615Z,26.22
2022-12-25T03:54:29.619Z,28.66
2022-12-25T03:55:29.619Z,28.86
2022-12-25T03:56:29.625Z,30.51
2022-12-25T03:57:29.647Z,28.20
2022-12-25T03:58:29.637Z,30.51
2022-12-25T03:59:29.628Z,25.37
2022-12-25T04:00:29.633Z,27.42
2022-12-25T06:59:30.078Z,28.44
2022-12-25T07:08:30.095Z,25.38
2022-12-25T07:09:30.097Z,29.86
2022-12-25T07:10:30.116Z,28.00
2022-12-25T07:11:30.105Z,30.26
2022-12-25T07:13:30.099Z,30.36
2022-12-25T07:14:30.097Z,27.25
2022-12-25T07:15:30.109Z,27.46
2022-12-25T07:18:30.097Z,30.05
2022-12-25T07:19:30.108Z,30.79
2022-12-25T07:20:30.110Z,28.20
2022-12-25T07:21:30.119Z,28.81
2022-12-25T07:22:30.123Z,29.40
2022-12-25T07:23:30.111Z,29.39
2022-12-25T07:24:30.114Z,30.42
2022-12-25T07:25:36.871Z,31.07
2022-12-25T07:26:31.128Z,31.14
2022-12-25T07:27:30.119Z,31.03
2022-12-25T07:28:30.111Z,27.96
2022-12-25T07:29:30.118Z,29.94
2022-12-25T07:30:30.121Z,28.74
2022-12-25T07:31:30.225Z,27.34
2022-12-25T07:32:30.121Z,27.85
2022-12-25T07:33:30.132Z,30.32
2022-12-25T07:34:30.114Z,27.88
2022-12-25T07:35:30.133Z,28.12
2022-12-25T07:36:30.117Z,28.60
2022-12-25T07:37:30.121Z,26.17
2022-12-25T07:38:30.117Z,27.92
2022-12-25T07:39:30.113Z,30.09
2022-12-25T07:40:30.120Z,28.43
2022-12-25T07:41:30.112Z,29.88
2022-12-25T07:42:30.109Z,28.92
2022-12-25T07:43:30.118Z,28.72
2022-12-25T07:44:30.113Z,27.34
2022-12-25T07:45:30.156Z,28.12
2022-12-25T07:46:30.179Z,27.08
2022-12-25T07:47:30.103Z,26.55
2022-12-25T07:48:30.110Z,28.89
2022-12-25T07:49:30.102Z,27.39
2022-12-25T07:50:30.109Z,26.61
2022-12-25T07:51:30.155Z,28.34
2022-12-25T07:52:30.102Z,27.62
2022-12-25T07:54:30.114Z,30.01
2022-12-25T07:57:30.099Z,27.25
2022-12-25T08:03:30.444Z,28.00
2022-12-25T09:01:30.042Z,30.96
2022-12-25T10:06:29.441Z,36.21
2022-12-25T10:07:29.424Z,36.85
2022-12-25T10:08:29.444Z,36.94
2022-12-25T10:09:29.408Z,33.12
2022-12-25T10:10:29.397Z,38.56
2022-12-25T10:11:29.389Z,36.90
2022-12-25T10:12:29.385Z,38.49
2022-12-25T10:13:29.367Z,37.18
2022-12-25T10:14:29.373Z,39.97
2022-12-25T10:15:29.437Z,35.91
2022-12-25T10:16:29.414Z,32.19
2022-12-25T10:17:29.358Z,39.72
2022-12-25T10:18:29.338Z,38.06
2022-12-25T10:19:29.326Z,38.81
2022-12-25T10:20:29.327Z,36.58
2022-12-25T10:21:29.329Z,33.80
2022-12-25T10:22:29.314Z,40.18
2022-12-25T10:23:29.299Z,33.91
2022-12-25T10:24:29.298Z,34.32
2022-12-25T10:25:29.299Z,34.57
2022-12-25T10:26:29.284Z,35.94
2022-12-25T10:27:29.400Z,36.78
2022-12-25T10:28:29.269Z,42.46
2022-12-25T10:29:29.249Z,40.77
2022-12-25T10:30:29.239Z,36.18
2022-12-25T10:31:29.247Z,39.44
2022-12-25T10:32:29.264Z,38.54
2022-12-25T10:33:29.245Z,36.38
2022-12-25T10:34:29.216Z,34.90
2022-12-25T10:35:29.202Z,35.80
2022-12-25T10:36:29.196Z,34.35
2022-12-25T10:37:29.182Z,36.99
2022-12-25T10:38:29.176Z,35.51
2022-12-25T10:39:29.169Z,36.87
2022-12-25T10:40:29.160Z,36.82
2022-12-25T10:41:29.157Z,35.17
2022-12-25T10:42:29.145Z,36.34
2022-12-25T10:43:29.131Z,34.30
2022-12-25T10:44:29.144Z,35.25
2022-12-25T14:31:27.472Z,30.81
2022-12-25T14:32:27.458Z,27.91
2022-12-25T14:33:27.453Z,28.07
2022-12-25T14:34:27.435Z,29.26
2022-12-25T14:35:27.423Z,26.97
2022-12-25T14:36:27.411Z,28.87
2022-12-25T14:37:27.402Z,28.84
2022-12-25T18:52:47.439Z,29.78
2022-12-25T18:53:26.920Z,29.95
2022-12-25T18:54:25.929Z,29.82
2022-12-25T18:55:25.917Z,30.06
2022-12-25T18:56:25.917Z,30.08
2022-12-25T18:57:25.916Z,30.77
2022-12-25T18:58:25.916Z,30.18
2022-12-25T18:59:25.913Z,30.27
2022-12-25T19:00:25.913Z,30.31
2022-12-25T19:01:26.039Z,30.01
2022-12-25T19:02:26.068Z,26.90
2022-12-25T19:03:25.997Z,31.52
2022-12-25T19:04:25.912Z,28.71
2022-12-25T19:05:25.929Z,29.00
2022-12-25T19:06:25.932Z,31.09
2022-12-25T19:07:25.937Z,29.92
2022-12-25T19:08:25.934Z,31.38
2022-12-25T19:09:25.932Z,28.56
2022-12-25T19:10:25.948Z,27.77
2022-12-25T19:11:25.927Z,29.88
2022-12-25T19:12:25.949Z,29.25
2022-12-25T19:13:25.941Z,26.92
2022-12-25T19:14:25.937Z,27.67
2022-12-25T19:15:25.942Z,31.87
2022-12-25T19:16:25.968Z,30.52
2022-12-25T19:17:31.550Z,28.28
2022-12-25T19:18:26.937Z,28.56
2022-12-25T19:19:25.945Z,28.64
2022-12-25T19:20:25.949Z,29.58
2022-12-25T19:21:25.939Z,28.47
2022-12-25T19:22:25.947Z,29.35
2022-12-25T19:23:25.954Z,31.03
2022-12-25T19:24:25.949Z,31.58
2022-12-25T19:25:25.954Z,28.18
2022-12-25T19:26:25.948Z,29.94
2022-12-25T19:27:25.946Z,27.75
2022-12-25T19:28:25.938Z,29.51
2022-12-25T19:29:25.929Z,27.88
2022-12-25T19:30:25.928Z,28.17
2022-12-25T19:31:25.950Z,29.52
2022-12-25T19:32:25.928Z,28.72
2022-12-25T19:33:25.926Z,26.73
2022-12-25T19:34:25.926Z,27.09
2022-12-25T19:35:25.932Z,29.87
2022-12-25T19:36:25.942Z,29.05
2022-12-25T19:37:25.911Z,28.30
2022-12-25T19:38:25.906Z,30.92
2022-12-25T19:39:25.902Z,28.00
2022-12-25T19:40:25.903Z,30.90
2022-12-25T19:41:25.894Z,32.40
2022-12-25T19:42:25.914Z,28.39
2022-12-25T19:43:25.884Z,28.33
2022-12-25T19:44:25.885Z,25.12
2022-12-25T19:45:25.907Z,27.96
2022-12-25T19:46:26.043Z,28.23
2022-12-25T19:47:25.870Z,28.44
2022-12-25T19:48:25.873Z,26.82
2022-12-25T19:49:25.864Z,27.09
2022-12-25T19:50:25.873Z,26.64
2022-12-25T19:51:25.867Z,28.80
2022-12-25T19:52:25.896Z,27.54
2022-12-25T19:53:25.882Z,28.15
2022-12-25T19:54:25.884Z,25.00
2022-12-25T19:55:25.870Z,26.79
2022-12-25T19:56:25.867Z,31.30
2022-12-25T19:57:25.864Z,29.05
2022-12-25T19:58:25.874Z,27.96
2022-12-25T19:59:25.868Z,30.37
2022-12-25T20:00:25.872Z,29.43
2022-12-25T20:01:26.006Z,29.09
2022-12-25T20:02:25.986Z,29.46
2022-12-25T20:03:25.939Z,29.63
2022-12-25T20:04:25.881Z,26.79
2022-12-25T20:05:25.888Z,30.67
2022-12-25T20:06:25.893Z,28.98
2022-12-25T20:07:25.873Z,30.22
2022-12-25T20:08:25.881Z,30.73
2022-12-25T20:09:25.883Z,28.70
2022-12-25T20:10:25.884Z,28.31
2022-12-25T20:11:25.890Z,29.99
2022-12-25T20:12:25.895Z,28.90
2022-12-25T20:13:25.900Z,28.06
2022-12-25T20:14:25.920Z,29.52
2022-12-25T20:15:25.918Z,29.22
2022-12-25T20:16:26.021Z,30.86
2022-12-25T20:17:25.926Z,31.51
2022-12-25T20:18:25.938Z,29.93
2022-12-25T20:19:25.931Z,29.17
2022-12-25T20:20:25.944Z,28.49
2022-12-25T20:21:25.927Z,29.16
2022-12-25T20:22:25.944Z,28.46
2022-12-25T20:23:25.940Z,27.98
2022-12-25T20:24:25.935Z,27.53
2022-12-25T20:25:25.928Z,30.10
2022-12-25T20:26:25.955Z,30.26
2022-12-25T20:27:25.937Z,30.21
2022-12-25T20:28:25.942Z,30.36
2022-12-25T20:29:25.944Z,29.54
2022-12-25T20:30:25.942Z,29.55
2022-12-25T20:31:25.993Z,28.38
2022-12-25T20:32:25.967Z,30.21
2022-12-25T20:33:25.953Z,25.52
2022-12-25T20:34:25.964Z,27.60
2022-12-25T20:35:25.937Z,28.79
2022-12-25T20:36:28.544Z,28.89
2022-12-25T20:37:26.941Z,29.16
2022-12-25T20:38:25.935Z,29.17
2022-12-25T20:39:25.932Z,29.82
2022-12-25T20:40:25.926Z,30.00
2022-12-25T20:41:27.884Z,30.75
2022-12-25T20:42:25.918Z,33.53
2022-12-25T20:43:25.919Z,30.16
2022-12-25T20:44:25.919Z,28.07
2022-12-25T20:45:25.914Z,30.28
2022-12-25T20:46:26.080Z,29.70
2022-12-25T20:47:25.901Z,30.00
2022-12-25T20:48:25.907Z,29.96
2022-12-25T20:49:25.894Z,29.82
2022-12-25T20:50:25.898Z,29.93
2022-12-25T20:51:25.900Z,29.39
2022-12-25T20:52:25.888Z,27.59
2022-12-25T20:53:25.882Z,27.55
2022-12-25T20:54:25.879Z,28.40
2022-12-25T20:55:25.861Z,25.88
2022-12-25T20:56:25.865Z,25.93
2022-12-25T20:57:25.871Z,30.83
2022-12-25T20:58:25.855Z,27.76
2022-12-25T20:59:25.840Z,28.34
2022-12-25T21:00:25.833Z,29.48
2022-12-25T21:01:25.979Z,26.80
2022-12-25T21:02:34.593Z,29.29
2022-12-25T21:03:26.960Z,29.46
2022-12-25T21:04:25.801Z,29.31
2022-12-25T21:05:25.795Z,27.09
2022-12-25T21:06:25.799Z,28.37
2022-12-25T21:07:25.785Z,28.91
2022-12-25T21:08:25.772Z,29.55
2022-12-25T21:09:25.771Z,27.80
2022-12-25T21:10:25.754Z,28.58
2022-12-25T21:11:25.746Z,28.71
2022-12-25T21:12:25.747Z,28.00
2022-12-25T21:13:25.738Z,26.33
2022-12-25T21:14:25.737Z,28.79
2022-12-25T21:15:25.725Z,28.76
2022-12-25T21:16:25.781Z,27.61
2022-12-25T21:17:25.711Z,29.87
2022-12-25T21:18:25.716Z,28.80
2022-12-25T21:19:25.700Z,27.63
2022-12-25T21:20:25.697Z,27.90
2022-12-25T21:21:25.690Z,28.75
2022-12-25T21:22:25.702Z,30.02
2022-12-25T21:23:25.675Z,26.83
2022-12-25T21:24:25.674Z,28.50
2022-12-25T21:25:25.665Z,31.41
2022-12-25T21:26:25.667Z,27.68
2022-12-25T21:27:25.660Z,31.11
2022-12-25T21:28:25.659Z,29.50
2022-12-25T21:29:25.665Z,27.10
2022-12-25T21:30:25.754Z,27.86
2022-12-25T21:31:25.792Z,30.87
2022-12-25T21:32:25.646Z,28.21
2022-12-25T21:33:25.619Z,29.24
2022-12-25T21:34:25.622Z,30.44
2022-12-25T21:35:25.608Z,27.88
2022-12-25T21:36:25.592Z,28.20
2022-12-25T21:37:25.585Z,27.86
2022-12-25T21:38:25.581Z,27.39
2022-12-25T21:39:25.582Z,28.84
2022-12-25T21:40:25.578Z,28.80
2022-12-25T21:41:25.553Z,29.23
2022-12-25T21:42:25.546Z,28.83
2022-12-25T21:43:25.544Z,25.77
2022-12-25T21:44:25.544Z,27.17
2022-12-25T21:45:25.539Z,27.18
2022-12-25T21:46:25.621Z,28.66
2022-12-25T21:47:25.517Z,30.12
2022-12-25T21:48:26.509Z,30.30
2022-12-25T21:49:25.497Z,30.18
2022-12-25T21:50:25.483Z,29.61
2022-12-25T21:51:25.485Z,28.71
2022-12-25T21:52:25.480Z,29.34
2022-12-25T21:53:25.467Z,27.87
2022-12-25T21:54:25.472Z,27.52
2022-12-25T21:55:25.453Z,29.91
2022-12-25T21:56:25.462Z,30.86
2022-12-25T21:57:25.443Z,29.13
2022-12-25T21:58:25.441Z,25.81
2022-12-25T21:59:25.442Z,27.42
2022-12-25T22:00:25.438Z,25.82
2022-12-25T22:01:25.639Z,26.38
2022-12-25T22:02:25.621Z,29.05
2022-12-25T22:03:25.465Z,29.93
2022-12-25T22:04:25.428Z,30.46
2022-12-25T22:05:25.431Z,29.14
2022-12-25T22:06:25.427Z,26.89
2022-12-25T22:07:25.446Z,28.74
2022-12-25T22:08:25.422Z,29.32
2022-12-25T22:09:25.421Z,27.99
2022-12-25T22:10:25.415Z,28.12
2022-12-25T22:11:25.406Z,26.90
2022-12-25T22:12:32.012Z,28.55
2022-12-25T22:13:26.498Z,28.88
2022-12-25T22:14:50.349Z,29.01
2022-12-25T22:15:26.383Z,28.86
2022-12-25T22:16:25.467Z,28.91
2022-12-25T22:17:25.367Z,29.16
2022-12-25T22:18:25.366Z,29.55
2022-12-25T22:19:25.362Z,30.98
2022-12-25T22:20:25.350Z,29.73
2022-12-25T22:21:25.348Z,27.87
2022-12-25T22:22:25.360Z,26.32
2022-12-25T22:23:25.336Z,26.49
2022-12-25T22:24:25.338Z,25.62
2022-12-25T22:25:25.337Z,30.11
2022-12-25T22:26:25.314Z,27.70
2022-12-25T22:27:25.310Z,26.64
2022-12-25T22:28:25.294Z,28.86
2022-12-25T22:29:25.299Z,27.46
2022-12-25T22:30:25.291Z,30.49
2022-12-25T22:31:25.339Z,27.90
2022-12-25T22:32:25.270Z,29.28
2022-12-25T22:33:25.261Z,26.06
2022-12-25T22:34:25.252Z,28.43
2022-12-25T22:35:25.251Z,26.55
2022-12-25T22:36:25.249Z,27.22
2022-12-25T22:37:25.232Z,30.27
2022-12-25T22:38:25.228Z,27.68
2022-12-25T22:39:25.225Z,27.84
2022-12-25T22:40:25.236Z,29.69
2022-12-25T22:41:29.842Z,29.31
2022-12-25T22:42:26.211Z,29.78
2022-12-25T22:43:37.118Z,30.14
2022-12-25T22:44:26.204Z,29.61
2022-12-25T22:45:25.199Z,29.66
2022-12-25T22:46:25.237Z,30.31
2022-12-25T22:47:25.192Z,32.24
2022-12-25T22:48:25.182Z,28.73
2022-12-25T22:49:25.184Z,28.08
2022-12-25T22:50:25.187Z,28.18
2022-12-25T22:51:25.185Z,28.13
2022-12-25T22:52:25.179Z,29.49
2022-12-25T22:53:25.170Z,29.91
2022-12-25T22:54:25.170Z,28.87
2022-12-25T22:55:25.169Z,31.33
2022-12-25T22:56:25.158Z,28.97
2022-12-25T22:57:25.168Z,29.16
2022-12-25T22:58:25.153Z,29.25
2022-12-25T22:59:25.159Z,28.79
2022-12-25T23:00:25.191Z,29.19
2022-12-25T23:01:25.203Z,28.34
2022-12-25T23:02:25.462Z,28.01
2022-12-25T23:03:25.282Z,28.67
2022-12-25T23:04:25.136Z,27.17
2022-12-25T23:05:25.161Z,28.60
2022-12-25T23:06:25.110Z,28.84
2022-12-25T23:07:25.167Z,28.47
2022-12-25T23:08:25.102Z,27.87
2022-12-25T23:09:25.088Z,28.05
2022-12-25T23:10:25.083Z,26.83
2022-12-25T23:11:25.073Z,27.85
2022-12-25T23:12:25.063Z,29.01
2022-12-25T23:13:25.070Z,29.21
2022-12-25T23:14:25.068Z,29.08
2022-12-25T23:15:25.066Z,29.16
2022-12-25T23:16:25.184Z,29.63
2022-12-25T23:17:25.065Z,27.93
2022-12-25T23:18:25.052Z,27.83
2022-12-25T23:19:25.050Z,28.47
2022-12-25T23:20:25.051Z,27.24
2022-12-25T23:21:25.036Z,26.90
2022-12-25T23:22:25.019Z,29.41
2022-12-25T23:23:25.013Z,26.79
2022-12-25T23:24:25.011Z,26.65
2022-12-25T23:25:24.996Z,29.05
2022-12-25T23:26:24.991Z,28.32
2022-12-25T23:27:24.983Z,27.63
2022-12-25T23:28:24.988Z,30.55
2022-12-25T23:29:24.985Z,26.86
2022-12-25T23:30:24.981Z,29.03
2022-12-25T23:31:25.170Z,28.54
2022-12-25T23:32:24.966Z,30.05
2022-12-25T23:33:24.959Z,29.25
2022-12-25T23:34:24.949Z,29.09
2022-12-25T23:35:24.959Z,30.52
2022-12-25T23:36:24.953Z,28.43
2022-12-25T23:37:24.933Z,29.69
2022-12-25T23:38:24.925Z,25.55
2022-12-25T23:39:24.930Z,29.49
2022-12-25T23:40:24.920Z,29.56
2022-12-25T23:41:24.927Z,29.90
2022-12-25T23:42:24.917Z,28.70
2022-12-25T23:43:24.914Z,30.34
2022-12-25T23:44:24.905Z,28.83
2022-12-25T23:45:24.909Z,26.99
2022-12-25T23:46:24.908Z,28.97
2022-12-25T23:47:24.894Z,28.10
2022-12-25T23:48:24.889Z,29.88
2022-12-25T23:49:24.910Z,29.60
2022-12-25T23:50:24.888Z,26.58
2022-12-25T23:51:24.892Z,25.47
2022-12-25T23:52:24.893Z,28.81
2022-12-25T23:53:24.889Z,28.30
2022-12-25T23:54:24.888Z,27.13
2022-12-25T23:55:24.889Z,27.69
2022-12-25T23:56:24.888Z,28.85
2022-12-25T23:57:24.894Z,27.94
2022-12-25T23:58:24.889Z,29.27
2022-12-25T23:59:24.900Z,28.25
